Felker Army Air Field
KFAF : now visible

Airfield :











YOU CAN JOIN US ON...

 
LOGIN :

Register | Disclaimer

   EN    FR    IT 

 









Legend :    VFR   Marginal VFR   IFR   Intensive IFR   Very Intensive IFR
Visi :
Ceiling :
>= 8 km
>= 3000ft
5 to 8 km
1000 to 3000 ft
1500m to 5 km
500 to 1000 ft
800 to 1500m
200 to 500 ft
< 800m
< 200 ft
Symbols :   Thunderstorms  Fog  Heavy snow  Heavy precipitations  Wind > 20 kt






- Airport Elevation : 12 ft


KFAF - Felker Army Air Field

CURRENT METAR :
  • 040756Z AUTO 20005KT 10SM BKN150 08/M01 A3019 RMK AO2 SLP226 T00811012 $

EXPIRED METARs :
  • 040656Z AUTO 00000KT 10SM FEW120 08/M01 A3021 RMK AO2 SLP233 T00791014 $
  • 040556Z AUTO 17003KT 10SM OVC140 08/M01 A3021 RMK AO2 SLP233 T00821013 10101 20072 58009 $

TAF TAF KFAF
Valid from the 04 at 03:00 until the 05 at 09:00 UTC


040300Z 0403/0509 21006KT 9999 SCT130 QNH3025INS
BECMG 0405/0406 VRB06KT 9999 BKN130 QNH3024INS
BECMG 0500/0501 VRB06KT 8000 -RA BKN015 QNH2991INS
BECMG 0503/0504 17006KT 8000 -SHRA OVC007 QNH2976INS TX14/0418Z TN05/0404Z LAST NO AMDS AFT 0404 NEXT 0411
KZDC FIR / North America



MET'MAP, your aeronautical weather chart ! - Copyright ORBIFLY December 2007 - Disclaimer

ORBIFLY MET'MAP TEAM :

Programming & Development : Alexandra Zaïnal
Concept & original design : Baudouin d'Aumeries
Assistance for programming : Marc-Olivier Méhu
Technical & hardware support : Manuel Goepfert

Contact : metmap@orbifly.com




SOURCES & CREDITS :

   NOAA       Earth
Advisory